VBD207 EGPB-EGPE

Flight info

Callsign VBD207
Flight time 1h 6m
Altitude 4500
Route VFR
Aircraft C208/L-SDFGR/C

Departure

Time 2026-04-17 05:23
Airport Sumburgh Airport (EGPB)

Arrival

Time 2026-04-17 06:30
Airport Inverness Airport (EGPE)
Time Latitude Longitude Altitude Speed Heading
2026-04-17 05:07 59.87656 -1.29801 42 ft 0 kts 128°
2026-04-17 05:16 59.87665 -1.29824 42 ft 3 kts 127°
2026-04-17 05:17 59.87664 -1.29863 42 ft 3 kts 34°
2026-04-17 05:17 59.87663 -1.29865 42 ft 0 kts 33°
2026-04-17 05:19 59.87670 -1.29855 42 ft 7 kts 36°
2026-04-17 05:19 59.87743 -1.29737 42 ft 20 kts 39°
2026-04-17 05:19 59.87829 -1.29604 42 ft 14 kts 37°
2026-04-17 05:19 59.87891 -1.29517 42 ft 16 kts 34°
2026-04-17 05:20 59.87976 -1.29387 42 ft 14 kts 35°
2026-04-17 05:20 59.88058 -1.29279 42 ft 18 kts 25°
2026-04-17 05:20 59.88133 -1.29179 44 ft 10 kts 37°
2026-04-17 05:20 59.88166 -1.29001 44 ft 19 kts 87°
2026-04-17 05:21 59.88183 -1.28756 45 ft 15 kts 84°
2026-04-17 05:21 59.88197 -1.28537 45 ft 17 kts 78°
2026-04-17 05:21 59.88207 -1.28368 45 ft 7 kts 78°
2026-04-17 05:21 59.88226 -1.28247 45 ft 2 kts 124°
2026-04-17 05:22 59.88208 -1.28295 45 ft 0 kts 264°
2026-04-17 05:22 59.88207 -1.28317 45 ft 11 kts 264°
2026-04-17 05:22 59.88170 -1.28963 46 ft 83 kts 263°
2026-04-17 05:23 59.88140 -1.30326 264 ft 109 kts 255°
2026-04-17 05:23 59.88004 -1.31926 367 ft 132 kts 245°
2026-04-17 05:23 59.87556 -1.33150 1004 ft 102 kts 199°
2026-04-17 05:23 59.86795 -1.33263 1119 ft 115 kts 182°
2026-04-17 05:24 59.86061 -1.33703 1504 ft 114 kts 201°
2026-04-17 05:24 59.85415 -1.34639 1847 ft 116 kts 212°
2026-04-17 05:24 59.84840 -1.35827 2094 ft 121 kts 217°
2026-04-17 05:24 59.84282 -1.37080 2372 ft 120 kts 215°
2026-04-17 05:25 59.83696 -1.38285 2605 ft 123 kts 214°
2026-04-17 05:25 59.83068 -1.39471 2799 ft 126 kts 213°
2026-04-17 05:25 59.82423 -1.40676 2990 ft 128 kts 213°
2026-04-17 05:25 59.81765 -1.41891 3134 ft 131 kts 214°
2026-04-17 05:26 59.81100 -1.43207 3210 ft 136 kts 216°
2026-04-17 05:26 59.80452 -1.44595 3304 ft 139 kts 218°
2026-04-17 05:26 59.79827 -1.46068 3373 ft 141 kts 222°
2026-04-17 05:26 59.79223 -1.47568 3545 ft 137 kts 221°
2026-04-17 05:27 59.78593 -1.48954 3721 ft 134 kts 218°
2026-04-17 05:27 59.77954 -1.50301 3911 ft 134 kts 218°
2026-04-17 05:27 59.77314 -1.51661 4081 ft 136 kts 219°
2026-04-17 05:27 59.76783 -1.53255 4255 ft 140 kts 229°
2026-04-17 05:28 59.76287 -1.54917 4403 ft 142 kts 229°
2026-04-17 05:28 59.75761 -1.56643 4403 ft 149 kts 229°
2026-04-17 05:28 59.75218 -1.58392 4409 ft 152 kts 229°
2026-04-17 05:28 59.74654 -1.60188 4412 ft 155 kts 229°
2026-04-17 05:29 59.74082 -1.62000 4412 ft 155 kts 229°
2026-04-17 05:29 59.73509 -1.63819 4404 ft 156 kts 229°
2026-04-17 05:29 59.72932 -1.65640 4408 ft 156 kts 229°
2026-04-17 05:29 59.72353 -1.67455 4408 ft 155 kts 226°
2026-04-17 05:30 59.71633 -1.68968 4406 ft 150 kts 215°
2026-04-17 05:30 59.70858 -1.70348 4406 ft 150 kts 214°
2026-04-17 05:30 59.70084 -1.71735 4402 ft 150 kts 215°
2026-04-17 05:30 59.69319 -1.73097 4402 ft 150 kts 214°
2026-04-17 05:31 59.68522 -1.74415 4399 ft 148 kts 208°
2026-04-17 05:31 59.67661 -1.75500 4401 ft 147 kts 206°
2026-04-17 05:31 59.66792 -1.76564 4399 ft 147 kts 205°
2026-04-17 05:31 59.65923 -1.77632 4395 ft 147 kts 206°
2026-04-17 05:32 59.65047 -1.78706 4254 ft 151 kts 211°
2026-04-17 05:32 59.64179 -1.79730 4377 ft 150 kts 203°
2026-04-17 05:32 59.63341 -1.81023 4446 ft 153 kts 206°
2026-04-17 05:32 59.62498 -1.82334 4448 ft 155 kts 206°
2026-04-17 05:33 59.61654 -1.83628 4450 ft 157 kts 205°
2026-04-17 05:33 59.60792 -1.84927 4431 ft 156 kts 207°
2026-04-17 05:33 59.59905 -1.86136 4413 ft 154 kts 207°
2026-04-17 05:33 59.59015 -1.87258 4414 ft 150 kts 205°
2026-04-17 05:34 59.58136 -1.88345 4413 ft 149 kts 205°
2026-04-17 05:34 59.57259 -1.89432 4413 ft 149 kts 205°
2026-04-17 05:34 59.56371 -1.90533 4406 ft 153 kts 205°
2026-04-17 05:34 59.55472 -1.91653 4406 ft 151 kts 205°
2026-04-17 05:35 59.54579 -1.92763 4405 ft 152 kts 206°
2026-04-17 05:35 59.53712 -1.93852 4403 ft 148 kts 205°
2026-04-17 05:35 59.52845 -1.94939 4402 ft 148 kts 205°
2026-04-17 05:35 59.51959 -1.95956 4398 ft 146 kts 196°
2026-04-17 05:36 59.50985 -1.96435 4400 ft 144 kts 191°
2026-04-17 05:36 59.50060 -1.97190 4394 ft 146 kts 205°
2026-04-17 05:36 59.49229 -1.98423 4394 ft 151 kts 212°
2026-04-17 05:36 59.48442 -1.99756 4392 ft 145 kts 213°
2026-04-17 05:37 59.47689 -2.01068 4388 ft 146 kts 213°
2026-04-17 05:37 59.46919 -2.02399 4389 ft 148 kts 213°
2026-04-17 05:37 59.46151 -2.03734 4391 ft 150 kts 213°
2026-04-17 05:37 59.45370 -2.05094 4392 ft 150 kts 213°
2026-04-17 05:38 59.44588 -2.06450 4393 ft 150 kts 214°
2026-04-17 05:38 59.43804 -2.07815 4392 ft 151 kts 214°
2026-04-17 05:38 59.43022 -2.09174 4392 ft 150 kts 213°
2026-04-17 05:38 59.42241 -2.10531 4390 ft 150 kts 214°
2026-04-17 05:39 59.41466 -2.11879 4389 ft 147 kts 213°
2026-04-17 05:39 59.40699 -2.13206 4388 ft 147 kts 214°
2026-04-17 05:39 59.39932 -2.14537 4387 ft 147 kts 214°
2026-04-17 05:39 59.39174 -2.15852 4388 ft 148 kts 213°
2026-04-17 05:40 59.38402 -2.17187 4387 ft 148 kts 214°
2026-04-17 05:40 59.37625 -2.18530 4388 ft 149 kts 214°
2026-04-17 05:40 59.36851 -2.19871 4388 ft 148 kts 213°
2026-04-17 05:40 59.36080 -2.21203 4387 ft 147 kts 213°
2026-04-17 05:41 59.35310 -2.22534 4387 ft 148 kts 213°
2026-04-17 05:41 59.34536 -2.23860 4386 ft 148 kts 213°
2026-04-17 05:41 59.33765 -2.25193 4386 ft 148 kts 214°
2026-04-17 05:41 59.32999 -2.26516 4385 ft 148 kts 214°
2026-04-17 05:42 59.32228 -2.27840 4385 ft 147 kts 214°
2026-04-17 05:42 59.31458 -2.29168 4366 ft 148 kts 214°
2026-04-17 05:42 59.30684 -2.30497 4378 ft 148 kts 214°
2026-04-17 05:42 59.29908 -2.31830 4378 ft 148 kts 214°
2026-04-17 05:43 59.29134 -2.33160 4363 ft 149 kts 214°
2026-04-17 05:43 59.28358 -2.34494 4378 ft 149 kts 214°
2026-04-17 05:43 59.27580 -2.35828 4378 ft 148 kts 214°
2026-04-17 05:43 59.26815 -2.37145 4414 ft 146 kts 214°
2026-04-17 05:44 59.26063 -2.38438 4495 ft 144 kts 213°
2026-04-17 05:44 59.25301 -2.39734 4493 ft 147 kts 214°
2026-04-17 05:44 59.24528 -2.41057 4492 ft 148 kts 214°
2026-04-17 05:44 59.23751 -2.42381 4492 ft 148 kts 214°
2026-04-17 05:45 59.22977 -2.43703 4493 ft 148 kts 214°
2026-04-17 05:45 59.22205 -2.45025 4496 ft 147 kts 214°
2026-04-17 05:45 59.21434 -2.46338 4492 ft 147 kts 214°
2026-04-17 05:45 59.20663 -2.47652 4491 ft 147 kts 214°
2026-04-17 05:46 59.19889 -2.48975 4491 ft 148 kts 214°
2026-04-17 05:46 59.19113 -2.50297 4494 ft 148 kts 214°
2026-04-17 05:46 59.18336 -2.51620 4496 ft 148 kts 214°
2026-04-17 05:46 59.17576 -2.52918 4491 ft 147 kts 214°
2026-04-17 05:47 59.16802 -2.54232 4492 ft 148 kts 214°
2026-04-17 05:47 59.16025 -2.55549 4491 ft 148 kts 214°
2026-04-17 05:47 59.15247 -2.56869 4491 ft 148 kts 214°
2026-04-17 05:47 59.14470 -2.58188 4491 ft 149 kts 214°
2026-04-17 05:48 59.13688 -2.59513 4492 ft 149 kts 214°
2026-04-17 05:48 59.12905 -2.60840 4491 ft 150 kts 214°
2026-04-17 05:48 59.12373 -2.61739 4491 ft 149 kts 214°
2026-04-17 05:48 59.11595 -2.63062 4490 ft 148 kts 214°
2026-04-17 05:49 59.10820 -2.64373 4494 ft 148 kts 214°
2026-04-17 05:49 59.10049 -2.65673 4526 ft 153 kts 221°
2026-04-17 05:49 59.09237 -2.67060 4620 ft 158 kts 221°
2026-04-17 05:49 59.08385 -2.68497 4625 ft 165 kts 221°
2026-04-17 05:50 59.07509 -2.69972 4628 ft 168 kts 221°
2026-04-17 05:50 59.06620 -2.71470 4636 ft 169 kts 221°
2026-04-17 05:50 59.05727 -2.72973 4639 ft 170 kts 221°
2026-04-17 05:50 59.04834 -2.74482 4639 ft 170 kts 222°
2026-04-17 05:51 59.04017 -2.76148 4638 ft 170 kts 228°
2026-04-17 05:51 59.03228 -2.77858 4639 ft 170 kts 228°
2026-04-17 05:51 59.02437 -2.79573 4639 ft 170 kts 228°
2026-04-17 05:51 59.01656 -2.81267 4635 ft 170 kts 228°
2026-04-17 05:52 59.00867 -2.82978 4639 ft 170 kts 228°
2026-04-17 05:52 59.00074 -2.84695 4633 ft 170 kts 228°
2026-04-17 05:52 58.99283 -2.86404 4639 ft 171 kts 228°
2026-04-17 05:52 58.98491 -2.88117 4639 ft 170 kts 227°
2026-04-17 05:53 58.97498 -2.89311 4627 ft 171 kts 195°
2026-04-17 05:53 58.96334 -2.89798 4628 ft 171 kts 192°
2026-04-17 05:53 58.95166 -2.90278 4636 ft 172 kts 192°
2026-04-17 05:53 58.94013 -2.90752 4632 ft 172 kts 192°
2026-04-17 05:54 58.92846 -2.91229 4637 ft 172 kts 192°
2026-04-17 05:54 58.91678 -2.91706 4640 ft 172 kts 192°
2026-04-17 05:54 58.90508 -2.92185 4634 ft 172 kts 192°
2026-04-17 05:54 58.89338 -2.92660 4629 ft 172 kts 192°
2026-04-17 05:55 58.88168 -2.93136 4636 ft 172 kts 192°
2026-04-17 05:55 58.86997 -2.93614 4631 ft 172 kts 192°
2026-04-17 05:55 58.85831 -2.94089 4632 ft 172 kts 192°
2026-04-17 05:55 58.84656 -2.94568 4637 ft 173 kts 192°
2026-04-17 05:56 58.83485 -2.95044 4636 ft 172 kts 192°
2026-04-17 05:56 58.82330 -2.95513 4627 ft 172 kts 192°
2026-04-17 05:56 58.81159 -2.95990 4635 ft 172 kts 192°
2026-04-17 05:56 58.79988 -2.96463 4635 ft 172 kts 192°
2026-04-17 05:57 58.78819 -2.96940 4631 ft 172 kts 192°
2026-04-17 05:57 58.77650 -2.97415 4624 ft 172 kts 192°
2026-04-17 05:57 58.76478 -2.97892 4636 ft 172 kts 192°
2026-04-17 05:57 58.75304 -2.98371 4638 ft 173 kts 192°
2026-04-17 05:58 58.74124 -2.98848 4635 ft 173 kts 192°
2026-04-17 05:58 58.72963 -2.99317 4630 ft 173 kts 192°
2026-04-17 05:58 58.71787 -2.99794 4628 ft 173 kts 192°
2026-04-17 05:59 58.69443 -3.00746 4633 ft 171 kts 192°
2026-04-17 05:59 58.68285 -3.01218 4631 ft 170 kts 192°
2026-04-17 05:59 58.67135 -3.01685 4629 ft 169 kts 192°
2026-04-17 05:59 58.65984 -3.02154 4628 ft 169 kts 192°
2026-04-17 06:00 58.64837 -3.02620 4618 ft 169 kts 192°
2026-04-17 06:00 58.63702 -3.03081 4624 ft 170 kts 192°
2026-04-17 06:00 58.62550 -3.03547 4627 ft 169 kts 192°
2026-04-17 06:00 58.61398 -3.04017 4622 ft 169 kts 192°
2026-04-17 06:01 58.60245 -3.04485 4622 ft 170 kts 192°
2026-04-17 06:01 58.59084 -3.04956 4628 ft 170 kts 192°
2026-04-17 06:01 58.57929 -3.05425 4625 ft 169 kts 192°
2026-04-17 06:01 58.56777 -3.05892 4617 ft 169 kts 192°
2026-04-17 06:02 58.55628 -3.06358 4626 ft 169 kts 192°
2026-04-17 06:02 58.54494 -3.06818 4626 ft 169 kts 192°
2026-04-17 06:02 58.53345 -3.07284 4625 ft 169 kts 192°
2026-04-17 06:02 58.52196 -3.07749 4625 ft 169 kts 192°
2026-04-17 06:03 58.51046 -3.08214 4625 ft 169 kts 192°
2026-04-17 06:03 58.49896 -3.08680 4621 ft 169 kts 192°
2026-04-17 06:03 58.48747 -3.09143 4624 ft 169 kts 192°
2026-04-17 06:03 58.47600 -3.09613 4623 ft 169 kts 194°
2026-04-17 06:04 58.46515 -3.10433 4619 ft 168 kts 205°
2026-04-17 06:04 58.45466 -3.11370 4622 ft 169 kts 205°
2026-04-17 06:04 58.44401 -3.12316 4628 ft 169 kts 205°
2026-04-17 06:04 58.43337 -3.13260 4629 ft 169 kts 205°
2026-04-17 06:05 58.42271 -3.14204 4629 ft 169 kts 205°
2026-04-17 06:05 58.41204 -3.15149 4626 ft 169 kts 205°
2026-04-17 06:05 58.40137 -3.16097 4621 ft 169 kts 205°
2026-04-17 06:05 58.39070 -3.17044 4622 ft 169 kts 205°
2026-04-17 06:06 58.38002 -3.17990 4625 ft 169 kts 205°
2026-04-17 06:06 58.36951 -3.18923 4628 ft 169 kts 205°
2026-04-17 06:06 58.35885 -3.19868 4626 ft 169 kts 205°
2026-04-17 06:06 58.34819 -3.20812 4625 ft 169 kts 205°
2026-04-17 06:07 58.33756 -3.21754 4625 ft 169 kts 205°
2026-04-17 06:07 58.32690 -3.22698 4627 ft 169 kts 205°
2026-04-17 06:07 58.31625 -3.23641 4627 ft 169 kts 205°
2026-04-17 06:07 58.30555 -3.24587 4624 ft 169 kts 205°
2026-04-17 06:08 58.29482 -3.25534 4620 ft 170 kts 205°
2026-04-17 06:08 58.28427 -3.26463 4626 ft 169 kts 205°
2026-04-17 06:08 58.27361 -3.27404 4620 ft 169 kts 205°
2026-04-17 06:08 58.26298 -3.28342 4625 ft 169 kts 205°
2026-04-17 06:09 58.25233 -3.29282 4626 ft 169 kts 205°
2026-04-17 06:09 58.24169 -3.30222 4621 ft 169 kts 205°
2026-04-17 06:09 58.23108 -3.31158 4625 ft 168 kts 205°
2026-04-17 06:09 58.22045 -3.32096 4619 ft 168 kts 205°
2026-04-17 06:10 58.20981 -3.33032 4619 ft 168 kts 205°
2026-04-17 06:10 58.19918 -3.33969 4620 ft 168 kts 205°
2026-04-17 06:10 58.18870 -3.34893 4623 ft 169 kts 205°
2026-04-17 06:10 58.17808 -3.35826 4621 ft 169 kts 205°
2026-04-17 06:11 58.16745 -3.36762 4618 ft 168 kts 205°
2026-04-17 06:11 58.15681 -3.37698 4617 ft 169 kts 205°
2026-04-17 06:11 58.14616 -3.38631 4621 ft 168 kts 205°
2026-04-17 06:11 58.13553 -3.39564 4626 ft 169 kts 205°
2026-04-17 06:12 58.12491 -3.40496 4623 ft 168 kts 205°
2026-04-17 06:12 58.11427 -3.41432 4620 ft 168 kts 205°
2026-04-17 06:12 58.10364 -3.42367 4619 ft 169 kts 205°
2026-04-17 06:12 58.09314 -3.43287 4620 ft 169 kts 205°
2026-04-17 06:13 58.08250 -3.44220 4621 ft 168 kts 205°
2026-04-17 06:13 58.07189 -3.45150 4627 ft 168 kts 205°
2026-04-17 06:13 58.06123 -3.46083 4627 ft 168 kts 205°
2026-04-17 06:13 58.05062 -3.47012 4623 ft 169 kts 205°
2026-04-17 06:14 58.03997 -3.47945 4624 ft 169 kts 205°
2026-04-17 06:14 58.02933 -3.48876 4623 ft 169 kts 205°
2026-04-17 06:14 58.01871 -3.49805 4623 ft 168 kts 205°
2026-04-17 06:14 58.00807 -3.50734 4623 ft 168 kts 205°
2026-04-17 06:15 57.99758 -3.51649 4617 ft 168 kts 205°
2026-04-17 06:15 57.98694 -3.52577 4626 ft 168 kts 205°
2026-04-17 06:15 57.97629 -3.53507 4624 ft 169 kts 205°
2026-04-17 06:15 57.96565 -3.54435 4624 ft 169 kts 205°
2026-04-17 06:16 57.95503 -3.55361 4620 ft 169 kts 205°
2026-04-17 06:16 57.94437 -3.56291 4625 ft 168 kts 205°
2026-04-17 06:16 57.93375 -3.57217 4625 ft 169 kts 205°
2026-04-17 06:16 57.92326 -3.58131 4622 ft 168 kts 205°
2026-04-17 06:17 57.91262 -3.59058 4626 ft 168 kts 205°
2026-04-17 06:17 57.90198 -3.59983 4626 ft 168 kts 205°
2026-04-17 06:17 57.89134 -3.60909 4620 ft 168 kts 205°
2026-04-17 06:17 57.88071 -3.61835 4626 ft 169 kts 205°
2026-04-17 06:18 57.87006 -3.62761 4621 ft 169 kts 205°
2026-04-17 06:18 57.85942 -3.63685 4620 ft 169 kts 205°
2026-04-17 06:18 57.84878 -3.64610 4626 ft 169 kts 205°
2026-04-17 06:18 57.83815 -3.65533 4626 ft 169 kts 205°
2026-04-17 06:19 57.82765 -3.66444 4625 ft 169 kts 205°
2026-04-17 06:19 57.81701 -3.67368 4625 ft 168 kts 205°
2026-04-17 06:19 57.80630 -3.68295 4530 ft 169 kts 205°
2026-04-17 06:19 57.79632 -3.69166 4340 ft 151 kts 205°
2026-04-17 06:20 57.78718 -3.69961 4147 ft 140 kts 205°
2026-04-17 06:20 57.77849 -3.70715 3957 ft 136 kts 205°
2026-04-17 06:20 57.76992 -3.71458 3727 ft 137 kts 205°
2026-04-17 06:20 57.76125 -3.72208 3474 ft 137 kts 205°
2026-04-17 06:21 57.75257 -3.72961 3217 ft 137 kts 205°
2026-04-17 06:21 57.74400 -3.73700 2978 ft 137 kts 205°
2026-04-17 06:21 57.73535 -3.74449 2728 ft 137 kts 205°
2026-04-17 06:21 57.72670 -3.75195 2479 ft 137 kts 205°
2026-04-17 06:22 57.71812 -3.75937 2268 ft 134 kts 205°
2026-04-17 06:22 57.70981 -3.76653 2114 ft 130 kts 205°
2026-04-17 06:22 57.70160 -3.77362 1960 ft 129 kts 205°
2026-04-17 06:22 57.69348 -3.78062 1804 ft 128 kts 205°
2026-04-17 06:23 57.68537 -3.78759 1659 ft 128 kts 205°
2026-04-17 06:23 57.67761 -3.79429 1631 ft 123 kts 205°
2026-04-17 06:23 57.66961 -3.80112 1643 ft 129 kts 205°
2026-04-17 06:23 57.66122 -3.80805 1645 ft 133 kts 204°
2026-04-17 06:24 57.65292 -3.81559 1672 ft 133 kts 208°
2026-04-17 06:24 57.64528 -3.82528 1730 ft 131 kts 220°
2026-04-17 06:24 57.63863 -3.83692 1792 ft 131 kts 226°
2026-04-17 06:24 57.63247 -3.84886 1838 ft 123 kts 228°
2026-04-17 06:25 57.62700 -3.86116 1732 ft 125 kts 233°
2026-04-17 06:25 57.62187 -3.87400 1713 ft 121 kts 234°
2026-04-17 06:25 57.61688 -3.88651 1700 ft 113 kts 232°
2026-04-17 06:25 57.61209 -3.89708 1739 ft 105 kts 229°
2026-04-17 06:26 57.60710 -3.90728 1676 ft 107 kts 227°
2026-04-17 06:26 57.60219 -3.91772 1614 ft 106 kts 228°
2026-04-17 06:26 57.59729 -3.92800 1515 ft 105 kts 230°
2026-04-17 06:26 57.59277 -3.93807 1433 ft 99 kts 231°
2026-04-17 06:27 57.58838 -3.94780 1320 ft 99 kts 231°
2026-04-17 06:27 57.58400 -3.95704 1163 ft 93 kts 228°
2026-04-17 06:27 57.57995 -3.96579 1011 ft 88 kts 232°
2026-04-17 06:27 57.57627 -3.97422 867 ft 82 kts 230°
2026-04-17 06:28 57.57269 -3.98201 802 ft 76 kts 230°
2026-04-17 06:28 57.56927 -3.98959 736 ft 78 kts 228°
2026-04-17 06:28 57.56557 -3.99732 645 ft 81 kts 229°
2026-04-17 06:28 57.56203 -4.00532 569 ft 78 kts 231°
2026-04-17 06:29 57.55848 -4.01301 458 ft 79 kts 229°
2026-04-17 06:29 57.55491 -4.02075 330 ft 77 kts 230°
2026-04-17 06:29 57.55151 -4.02808 215 ft 72 kts 228°
2026-04-17 06:29 57.54832 -4.03498 104 ft 70 kts 229°
2026-04-17 06:30 57.54528 -4.04156 37 ft 63 kts 230°
2026-04-17 06:30 57.54323 -4.04601 34 ft 10 kts 228°
2026-04-17 06:30 57.54287 -4.04685 34 ft 21 kts 230°
2026-04-17 06:30 57.54154 -4.04968 33 ft 36 kts 226°
2026-04-17 06:31 57.53988 -4.05324 35 ft 37 kts 232°
2026-04-17 06:31 57.53851 -4.05629 37 ft 20 kts 228°
2026-04-17 06:31 57.53757 -4.05832 37 ft 21 kts 228°
2026-04-17 06:31 57.53724 -4.05999 37 ft 10 kts 297°
2026-04-17 06:32 57.53769 -4.06137 38 ft 13 kts 305°
2026-04-17 06:32 57.53845 -4.06184 38 ft 14 kts
2026-04-17 06:32 57.53954 -4.06164 37 ft 17 kts
2026-04-17 06:32 57.54064 -4.06146 37 ft 13 kts
2026-04-17 06:33 57.54141 -4.06167 38 ft 13 kts 335°
2026-04-17 06:33 57.54216 -4.06238 38 ft 9 kts 339°
2026-04-17 06:33 57.54253 -4.06294 38 ft 3 kts 279°
2026-04-17 06:33 57.54255 -4.06334 38 ft 0 kts 275°